Time;durP1;ratioP1;P1;durP2;ratioP2;P2;SDS_P1;SDS_P2;PMS_P1;PMS_P2;Temp;Humidity;BMP_temperature;BMP_pressure;BME280_temperature;BME280_humidity;BME280_pressure;Samples;Min_cycle;Max_cycle;Signal;HPM_P1;HPM_P2
2023/11/17 00:03:04;;;;;;;3.22;2.00;;;;;;;7.78;66.55;99626.59;10513356;28;20051;-66
2023/11/17 00:08:06;;;;;;;3.67;1.58;;;;;;;7.85;66.67;99632.34;10515235;28;20052;-67
2023/11/17 00:13:08;;;;;;;3.63;2.15;;;;;;;7.86;66.57;99639.22;10511462;28;20060;-67
2023/11/17 00:18:10;;;;;;;3.20;1.98;;;;;;;7.83;66.43;99653.22;10512535;28;20040;-67
2023/11/17 00:23:12;;;;;;;3.53;1.90;;;;;;;7.74;66.53;99661.53;10514817;28;20131;-66
2023/11/17 00:28:14;;;;;;;7.57;2.03;;;;;;;7.69;66.48;99678.31;10513691;28;20696;-67
2023/11/17 00:33:16;;;;;;;5.20;2.38;;;;;;;7.72;66.50;99679.00;10493956;28;20040;-66
2023/11/17 00:38:18;;;;;;;6.45;2.45;;;;;;;7.74;66.27;99692.78;10497885;28;20048;-66
2023/11/17 00:43:20;;;;;;;7.28;2.47;;;;;;;7.72;66.15;99702.41;10495597;28;20055;-66
2023/11/17 00:48:22;;;;;;;4.93;2.00;;;;;;;7.73;66.21;99717.09;10495142;28;20476;-66
2023/11/17 00:53:29;;;;;;;8.40;2.60;;;;;;;7.66;66.06;99715.75;10512798;28;20041;-66
2023/11/17 00:58:31;;;;;;;6.88;3.00;;;;;;;7.59;66.03;99726.56;10515503;28;20048;-67
2023/11/17 01:03:33;;;;;;;4.93;2.55;;;;;;;7.46;66.35;99735.88;10510695;28;20040;-67
2023/11/17 01:08:35;;;;;;;6.47;3.00;;;;;;;7.32;66.36;99752.19;10509799;28;20048;-66
2023/11/17 01:13:39;;;;;;;6.47;3.13;;;;;;;7.32;66.50;99751.34;10513163;28;20060;-66
2023/11/17 01:18:41;;;;;;;4.10;2.38;;;;;;;7.31;66.48;99757.44;10478414;28;20075;-67
2023/11/17 01:23:43;;;;;;;6.22;2.70;;;;;;;7.30;66.45;99774.84;10514584;28;20091;-67
2023/11/17 01:28:45;;;;;;;5.15;2.88;;;;;;;7.31;66.43;99784.31;10495036;28;20925;-66
2023/11/17 01:33:48;;;;;;;4.97;2.80;;;;;;;7.37;66.33;99786.63;10512417;28;20048;-67
2023/11/17 01:38:52;;;;;;;4.82;2.33;;;;;;;7.18;66.57;99799.66;10512007;28;20137;-67
2023/11/17 01:43:57;;;;;;;5.45;2.30;;;;;;;7.14;66.69;99799.91;10495105;28;20123;-67
2023/11/17 01:48:59;;;;;;;3.25;2.30;;;;;;;7.11;66.87;99805.25;10482626;28;20043;-66
2023/11/17 01:54:02;;;;;;;4.03;2.00;;;;;;;6.99;67.02;99819.69;10501360;28;20127;-66
2023/11/17 01:59:04;;;;;;;6.53;2.38;;;;;;;6.97;67.21;99829.31;10519761;28;20051;-67
2023/11/17 02:04:08;;;;;;;5.65;3.00;;;;;;;7.06;67.14;99839.25;10501220;28;20403;-66
2023/11/17 02:09:50;;;;;;;8.95;2.75;;;;;;;7.05;67.02;99844.53;10519116;28;20133;-66
2023/11/17 02:15:01;;;;;;;4.50;2.53;;;;;;;6.89;67.25;99851.38;10518856;28;20395;-67
2023/11/17 02:20:11;;;;;;;6.82;2.92;;;;;;;6.94;67.49;99859.78;10501791;28;20128;-67
2023/11/17 02:25:32;;;;;;;6.65;2.50;;;;;;;7.05;67.34;99862.75;10517580;28;20570;-66
2023/11/17 02:30:35;;;;;;;6.10;2.80;;;;;;;7.20;67.01;99867.25;10515503;28;20054;-66
2023/11/17 02:35:38;;;;;;;5.55;2.92;;;;;;;7.36;66.79;99873.41;10501781;28;20134;-66
2023/11/17 02:40:40;;;;;;;5.88;3.15;;;;;;;7.53;66.36;99875.19;10480090;28;20072;-66
2023/11/17 02:45:42;;;;;;;6.65;2.92;;;;;;;7.57;66.15;99880.16;10498498;28;20477;-67
2023/11/17 02:51:03;;;;;;;8.43;3.50;;;;;;;7.57;65.80;99887.97;10497985;28;20044;-66
2023/11/17 02:56:06;;;;;;;5.88;3.60;;;;;;;7.51;65.45;99893.47;10498962;28;20040;-66
2023/11/17 03:01:08;;;;;;;6.05;3.30;;;;;;;7.42;65.76;99904.34;10516003;28;20140;-66
2023/11/17 03:06:10;;;;;;;6.07;3.30;;;;;;;7.45;65.32;99901.56;10516806;28;20522;-67
2023/11/17 03:11:12;;;;;;;6.78;3.90;;;;;;;7.41;65.53;99913.03;10516099;28;20123;-66
2023/11/17 03:16:23;;;;;;;7.80;3.45;;;;;;;7.31;65.42;99916.13;10516426;28;20059;-66
2023/11/17 03:21:26;;;;;;;6.53;3.22;;;;;;;7.17;65.55;99929.78;10515819;28;20056;-66
2023/11/17 03:26:28;;;;;;;8.07;3.75;;;;;;;7.05;65.68;99940.75;10516639;28;20142;-66
2023/11/17 03:31:30;;;;;;;6.60;3.58;;;;;;;7.04;65.56;99933.88;10497231;28;20044;-66
2023/11/17 03:36:32;;;;;;;8.90;3.40;;;;;;;6.91;65.77;99937.94;10515745;28;20050;-66
2023/11/17 03:41:34;;;;;;;6.43;3.70;;;;;;;6.80;65.70;99948.78;10513886;28;20400;-67
2023/11/17 03:46:36;;;;;;;5.03;2.95;;;;;;;6.65;65.61;99939.09;10516367;28;20558;-66
2023/11/17 03:51:38;;;;;;;9.68;3.72;;;;;;;6.64;65.56;99965.97;10496523;28;20055;-66
2023/11/17 03:56:40;;;;;;;7.75;3.45;;;;;;;6.62;65.69;99967.78;10516493;28;20083;-66
2023/11/17 04:01:43;;;;;;;5.45;3.13;;;;;;;6.52;65.80;99974.28;10491100;28;20051;-67
2023/11/17 04:06:49;;;;;;;6.55;2.88;;;;;;;6.59;65.85;99973.13;10464806;28;20457;-67
2023/11/17 04:11:53;;;;;;;5.85;3.10;;;;;;;6.50;65.62;99983.06;10477979;28;21142;-66
2023/11/17 04:16:55;;;;;;;6.43;3.15;;;;;;;6.46;65.86;99984.94;10512795;28;20071;-66
2023/11/17 04:21:58;;;;;;;7.20;3.88;;;;;;;6.27;65.67;99977.06;10514307;28;20163;-67
2023/11/17 04:27:01;;;;;;;4.82;2.53;;;;;;;6.12;65.91;99985.44;10514157;28;20044;-66
2023/11/17 04:32:04;;;;;;;6.20;2.75;;;;;;;6.12;65.87;99988.03;10514286;28;20801;-66
2023/11/17 04:37:06;;;;;;;4.38;2.63;;;;;;;6.13;66.03;99991.50;10515235;28;20048;-66
2023/11/17 04:42:08;;;;;;;6.63;3.42;;;;;;;6.10;66.06;100002.00;10496645;28;20040;-66
2023/11/17 04:47:10;;;;;;;5.05;2.95;;;;;;;6.12;65.97;100008.00;10513544;28;20059;-66
2023/11/17 04:52:12;;;;;;;5.50;2.50;;;;;;;6.14;65.99;100016.56;10514414;28;20050;-66
2023/11/17 04:57:14;;;;;;;7.47;3.13;;;;;;;6.09;66.02;100018.47;10514141;28;20447;-66
2023/11/17 05:02:16;;;;;;;7.82;3.25;;;;;;;6.05;65.97;100032.50;10512064;28;20052;-66
2023/11/17 05:07:18;;;;;;;6.90;3.53;;;;;;;6.00;66.05;100029.25;10514009;28;20090;-66
2023/11/17 05:12:20;;;;;;;5.45;2.78;;;;;;;5.93;65.84;100028.66;10510280;28;20078;-66
2023/11/17 05:17:22;;;;;;;6.07;2.70;;;;;;;5.72;66.07;100033.81;10515102;28;20056;-66
2023/11/17 05:22:24;;;;;;;6.88;3.50;;;;;;;5.59;66.03;100036.03;10518291;28;20502;-66
2023/11/17 05:27:26;;;;;;;6.53;2.95;;;;;;;5.52;66.39;100045.78;10521474;28;20059;-66
2023/11/17 05:32:29;;;;;;;3.78;2.33;;;;;;;5.49;66.54;100039.88;10521214;28;20161;-66
2023/11/17 05:37:31;;;;;;;5.75;3.00;;;;;;;5.47;66.62;100039.91;10520479;28;20479;-66
2023/11/17 05:42:34;;;;;;;5.47;2.90;;;;;;;5.36;66.44;100049.88;10520513;28;20117;-67
2023/11/17 05:47:36;;;;;;;9.32;3.67;;;;;;;5.27;66.50;100046.72;10520746;28;20381;-66
2023/11/17 05:52:39;;;;;;;5.85;3.42;;;;;;;5.21;66.70;100068.56;10518942;28;20054;-66
2023/11/17 05:57:42;;;;;;;5.63;3.45;;;;;;;5.20;66.66;100073.81;10518535;28;20051;-66
2023/11/17 06:02:45;;;;;;;6.22;3.58;;;;;;;5.16;66.97;100072.22;10517139;28;20454;-66
2023/11/17 06:07:47;;;;;;;9.35;3.95;;;;;;;5.22;66.84;100072.00;10501567;28;20047;-67
2023/11/17 06:12:50;;;;;;;6.72;3.50;;;;;;;5.26;66.87;100071.84;10519604;28;20403;-66
2023/11/17 06:17:52;;;;;;;7.93;3.05;;;;;;;5.33;66.78;100083.66;10499735;28;20149;-66
2023/11/17 06:22:54;;;;;;;12.93;3.92;;;;;;;5.31;66.91;100088.06;10519500;28;20044;-67
2023/11/17 06:27:55;;;;;;;6.90;3.72;;;;;;;5.31;66.85;100084.66;10481796;28;20051;-67
2023/11/17 06:32:57;;;;;;;6.25;2.88;;;;;;;5.32;66.85;100096.69;10516645;28;20123;-67
2023/11/17 06:38:03;;;;;;;4.75;2.72;;;;;;;5.27;66.88;100094.25;10511765;28;20397;-67
2023/11/17 06:43:08;;;;;;;5.78;3.15;;;;;;;5.27;66.94;100096.84;10517901;28;20056;-66
2023/11/17 06:48:10;;;;;;;6.30;3.38;;;;;;;5.22;66.93;100101.38;10516972;28;20048;-66
2023/11/17 06:53:12;;;;;;;6.28;3.53;;;;;;;5.11;66.91;100106.06;10497723;28;20043;-67
2023/11/17 06:58:14;;;;;;;6.22;3.10;;;;;;;5.20;66.92;100103.19;10517164;28;21090;-66
2023/11/17 07:03:16;;;;;;;6.47;2.85;;;;;;;5.26;66.78;100112.47;10516743;28;20138;-67
2023/11/17 07:08:18;;;;;;;5.85;3.17;;;;;;;5.11;66.60;100113.84;10494477;28;20141;-68
2023/11/17 07:13:20;;;;;;;7.05;3.05;;;;;;;5.14;66.78;100129.31;10495474;28;20048;-67
2023/11/17 07:18:22;;;;;;;4.82;2.60;;;;;;;5.26;66.77;100139.25;10517162;28;20047;-67
2023/11/17 07:23:24;;;;;;;5.00;2.78;;;;;;;5.32;66.62;100135.59;10511525;28;20130;-67
2023/11/17 07:28:26;;;;;;;6.05;3.10;;;;;;;5.38;66.62;100148.34;10495298;28;20051;-66
2023/11/17 07:33:28;;;;;;;6.10;3.35;;;;;;;5.37;66.64;100157.03;10514503;28;20060;-66
2023/11/17 07:38:30;;;;;;;5.57;2.97;;;;;;;5.38;66.48;100158.72;10515976;28;20079;-66
2023/11/17 07:43:32;;;;;;;5.13;2.97;;;;;;;5.52;66.52;100153.88;10492155;28;20043;-67
2023/11/17 07:48:34;;;;;;;7.13;3.65;;;;;;;5.71;66.18;100156.66;10510906;28;20036;-67
2023/11/17 07:53:51;;;;;;;8.90;3.65;;;;;;;5.66;65.92;100158.56;10496746;28;20403;-67
2023/11/17 07:58:54;;;;;;;8.00;3.35;;;;;;;5.69;66.23;100161.06;10512047;28;20136;-67
2023/11/17 08:03:56;;;;;;;4.97;2.78;;;;;;;5.73;66.00;100171.28;10511612;28;20039;-67
2023/11/17 08:08:58;;;;;;;7.20;3.50;;;;;;;5.81;66.01;100169.25;10514574;28;20044;-67
2023/11/17 08:14:00;;;;;;;6.18;3.28;;;;;;;5.88;65.79;100181.09;10511483;28;20137;-67
2023/11/17 08:19:08;;;;;;;5.60;3.20;;;;;;;5.94;65.92;100183.47;10509619;28;20150;-67
2023/11/17 08:24:26;;;;;;;9.95;3.83;;;;;;;6.20;65.75;100182.50;10508214;28;20132;-67
2023/11/17 08:29:28;;;;;;;9.00;3.80;;;;;;;6.40;65.84;100190.41;10469870;28;20052;-67
2023/11/17 08:34:31;;;;;;;7.60;4.05;;;;;;;6.63;65.57;100189.53;10474761;28;20063;-67
2023/11/17 08:39:34;;;;;;;7.10;4.00;;;;;;;6.68;65.28;100201.41;10485876;28;20702;-67
2023/11/17 08:44:37;;;;;;;10.82;4.60;;;;;;;6.75;65.28;100191.63;10511788;28;20122;-66
2023/11/17 08:49:41;;;;;;;8.43;3.10;;;;;;;6.79;65.05;100193.19;10508451;28;20036;-67
2023/11/17 08:54:45;;;;;;;7.20;3.70;;;;;;;6.86;64.28;100184.22;10475608;28;21093;-67
2023/11/17 08:59:50;;;;;;;9.38;3.80;;;;;;;7.11;64.24;100187.53;10517537;28;20475;-67
2023/11/17 09:04:56;;;;;;;6.93;3.85;;;;;;;7.33;63.46;100180.50;10498960;28;20725;-67
2023/11/17 09:10:01;;;;;;;5.88;3.42;;;;;;;7.38;63.64;100194.19;10516275;28;20793;-67
2023/11/17 09:15:18;;;;;;;9.90;3.90;;;;;;;7.31;63.63;100191.88;10518511;28;20132;-67
2023/11/17 09:20:24;;;;;;;7.90;3.97;;;;;;;7.38;63.54;100190.72;10516629;28;20044;-67
2023/11/17 09:25:26;;;;;;;7.32;3.85;;;;;;;7.41;63.46;100195.78;10500051;28;20699;-67
2023/11/17 09:30:32;;;;;;;13.07;4.13;;;;;;;7.51;63.19;100210.94;10514108;28;20503;-67
2023/11/17 09:35:34;;;;;;;8.52;4.00;;;;;;;7.52;62.91;100206.59;10497289;28;20488;-67
2023/11/17 09:40:40;;;;;;;6.95;3.58;;;;;;;7.62;62.82;100203.53;10498701;28;20712;-67
2023/11/17 09:45:44;;;;;;;16.50;4.75;;;;;;;7.57;62.75;100207.25;10515874;28;20137;-67
2023/11/17 09:50:55;;;;;;;12.18;4.82;;;;;;;7.39;62.98;100206.28;10515851;28;20509;-67
2023/11/17 09:56:02;;;;;;;7.43;3.67;;;;;;;7.25;63.39;100206.00;10502929;28;20044;-67
2023/11/17 10:01:10;;;;;;;8.15;4.57;;;;;;;7.17;63.24;100205.47;10477525;28;20056;-67
2023/11/17 10:06:14;;;;;;;9.23;4.28;;;;;;;7.41;63.12;100207.06;10509083;28;20048;-67
2023/11/17 10:11:20;;;;;;;7.25;4.30;;;;;;;7.53;63.05;100203.09;10485047;28;20067;-67
2023/11/17 10:16:24;;;;;;;5.97;3.42;;;;;;;7.48;62.82;100215.44;10491493;28;20040;-67
2023/11/17 10:21:30;;;;;;;6.60;3.42;;;;;;;7.69;62.77;100214.53;10490064;28;20496;-67
2023/11/17 10:26:33;;;;;;;9.15;4.57;;;;;;;7.76;62.46;100206.38;10484611;28;20051;-67
2023/11/17 10:31:43;;;;;;;8.18;4.20;;;;;;;7.71;62.21;100210.94;10503722;28;20044;-68
2023/11/17 10:36:59;;;;;;;11.17;4.33;;;;;;;7.74;61.99;100212.56;10509638;28;20040;-67
2023/11/17 10:42:16;;;;;;;10.65;4.80;;;;;;;7.71;62.15;100212.72;10510989;28;20054;-67
2023/11/17 10:47:18;;;;;;;8.05;4.35;;;;;;;7.75;62.53;100215.09;10512744;28;20887;-67
2023/11/17 10:52:26;;;;;;;8.35;4.35;;;;;;;7.76;62.31;100213.34;10510293;28;20052;-67
2023/11/17 10:57:29;;;;;;;7.88;4.15;;;;;;;7.79;62.57;100215.81;10508643;28;20071;-67
2023/11/17 11:02:31;;;;;;;10.10;4.82;;;;;;;7.81;62.40;100211.41;10489515;28;20048;-67
2023/11/17 11:07:45;;;;;;;7.13;3.83;;;;;;;7.75;62.43;100209.06;10514170;28;20051;-67
2023/11/17 11:12:52;;;;;;;13.07;4.35;;;;;;;7.48;63.05;100212.84;10512049;28;20044;-66
2023/11/17 11:18:06;;;;;;;7.68;3.80;;;;;;;7.47;63.11;100217.19;10512416;28;20040;-66
2023/11/17 11:23:09;;;;;;;7.43;3.72;;;;;;;7.49;63.18;100209.34;10511498;28;20189;-66
2023/11/17 11:28:14;;;;;;;7.05;3.58;;;;;;;7.58;63.32;100217.59;10505352;28;20419;-67
2023/11/17 11:33:20;;;;;;;7.80;4.00;;;;;;;7.59;63.01;100218.44;10508354;28;20044;-66
2023/11/17 11:38:25;;;;;;;9.25;4.18;;;;;;;7.64;63.11;100216.47;10509921;28;20048;-67
2023/11/17 11:43:28;;;;;;;9.13;4.50;;;;;;;7.57;63.19;100215.06;10508309;28;20133;-67
2023/11/17 11:48:33;;;;;;;11.23;5.55;;;;;;;7.64;63.05;100212.13;10488145;28;20044;-67
2023/11/17 11:53:49;;;;;;;8.88;4.35;;;;;;;7.59;63.28;100224.47;10507467;28;20047;-67
2023/11/17 11:58:53;;;;;;;9.32;5.03;;;;;;;7.69;63.54;100219.75;10505060;28;20040;-68
2023/11/17 12:04:01;;;;;;;8.38;4.35;;;;;;;7.85;63.84;100218.97;10507396;28;20046;-67
2023/11/17 12:09:16;;;;;;;8.15;4.50;;;;;;;8.15;63.65;100221.19;10505531;28;20040;-67
2023/11/17 12:14:36;;;;;;;8.35;4.28;;;;;;;8.68;62.89;100207.38;10502895;28;20135;-67
2023/11/17 12:19:38;;;;;;;11.38;5.45;;;;;;;9.01;62.16;100199.69;10496265;28;20036;-68
2023/11/17 12:24:43;;;;;;;9.93;5.00;;;;;;;8.61;62.27;100212.91;10490586;28;20496;-68
2023/11/17 12:29:45;;;;;;;11.32;5.38;;;;;;;8.42;62.80;100215.56;10501996;28;20125;-67
2023/11/17 12:34:49;;;;;;;13.45;6.00;;;;;;;8.41;63.19;100219.06;10502476;28;20403;-67
2023/11/17 12:39:51;;;;;;;11.18;5.47;;;;;;;8.25;63.16;100225.91;10499516;28;20044;-68
2023/11/17 12:44:54;;;;;;;11.57;5.57;;;;;;;8.43;63.30;100226.81;10503969;28;20048;-67
2023/11/17 12:49:57;;;;;;;11.15;5.40;;;;;;;8.33;63.03;100228.16;10507079;28;20079;-67
2023/11/17 12:55:01;;;;;;;12.20;5.60;;;;;;;8.24;63.71;100233.81;10510988;28;20159;-67
2023/11/17 13:00:16;;;;;;;11.02;5.75;;;;;;;8.14;63.50;100227.31;10489936;28;20089;-67
2023/11/17 13:05:19;;;;;;;14.32;5.95;;;;;;;7.88;64.03;100228.44;10511338;28;20115;-68
2023/11/17 13:10:21;;;;;;;13.57;5.78;;;;;;;7.81;63.95;100233.03;10508913;28;20576;-68
2023/11/17 13:15:23;;;;;;;13.05;5.25;;;;;;;7.67;64.77;100235.41;10511472;28;20044;-68
2023/11/17 13:20:25;;;;;;;13.13;5.53;;;;;;;7.61;64.88;100243.47;10490411;28;20044;-68
2023/11/17 13:25:27;;;;;;;11.73;5.82;;;;;;;7.76;65.34;100235.03;10508136;28;20055;-68
2023/11/17 13:30:29;;;;;;;13.32;5.55;;;;;;;8.00;64.84;100241.75;10503583;28;20063;-68
2023/11/17 13:35:32;;;;;;;31.02;6.95;;;;;;;7.86;65.24;100233.72;10504848;28;20101;-68
2023/11/17 13:40:37;;;;;;;12.38;5.82;;;;;;;7.93;65.05;100232.53;10491523;28;20384;-68
2023/11/17 13:45:42;;;;;;;12.25;6.13;;;;;;;8.02;65.26;100244.28;10508135;28;20442;-68
2023/11/17 13:50:52;;;;;;;12.63;5.50;;;;;;;7.94;65.35;100249.84;10511985;28;20066;-68
2023/11/17 13:55:55;;;;;;;10.52;5.32;;;;;;;7.93;65.46;100253.38;10515186;28;20036;-67
2023/11/17 14:01:02;;;;;;;14.57;6.22;;;;;;;7.84;65.51;100258.97;10517436;28;20052;-69
2023/11/17 14:06:05;;;;;;;10.70;5.78;;;;;;;7.89;65.58;100253.56;10511285;28;20174;-68
2023/11/17 14:11:10;;;;;;;12.15;6.25;;;;;;;7.96;65.62;100265.38;10511405;28;20042;-67
2023/11/17 14:16:12;;;;;;;14.38;5.53;;;;;;;7.88;65.79;100272.69;10508741;28;20373;-68
2023/11/17 14:21:15;;;;;;;13.20;5.90;;;;;;;7.84;66.00;100279.81;10505880;28;20043;-68
2023/11/17 14:26:21;;;;;;;10.23;5.32;;;;;;;7.80;66.23;100286.06;10505497;28;20051;-68
2023/11/17 14:31:23;;;;;;;10.05;5.38;;;;;;;7.85;66.60;100289.28;10510128;28;20036;-68
2023/11/17 14:36:26;;;;;;;11.75;6.57;;;;;;;7.50;66.97;100287.34;10511926;28;20080;-68
2023/11/17 14:41:28;;;;;;;13.63;5.47;;;;;;;7.34;67.21;100301.91;10494895;28;20425;-68
2023/11/17 14:46:32;;;;;;;12.63;6.05;;;;;;;7.59;66.98;100301.75;10493048;28;20171;-68
2023/11/17 14:51:35;;;;;;;10.82;5.68;;;;;;;7.47;67.29;100307.47;10511767;28;20475;-66
2023/11/17 14:56:37;;;;;;;12.85;5.90;;;;;;;7.53;66.96;100313.22;10507380;28;20052;-67
2023/11/17 15:01:42;;;;;;;13.10;6.13;;;;;;;7.49;67.51;100319.47;10493797;28;20072;-66
2023/11/17 15:06:49;;;;;;;11.38;5.82;;;;;;;7.56;67.29;100325.28;10507134;28;20048;-67
2023/11/17 15:11:53;;;;;;;10.80;5.57;;;;;;;7.58;66.88;100329.53;10507178;28;20044;-67
2023/11/17 15:16:57;;;;;;;11.30;5.88;;;;;;;7.56;67.02;100328.72;10504634;28;20403;-68
2023/11/17 15:21:59;;;;;;;10.60;5.55;;;;;;;7.60;66.85;100345.91;10509607;28;20121;-67
2023/11/17 15:27:02;;;;;;;10.60;5.10;;;;;;;7.58;66.99;100345.13;10491625;28;20066;-68
2023/11/17 15:32:07;;;;;;;12.40;6.15;;;;;;;7.58;67.27;100358.16;10505945;28;20052;-66
2023/11/17 15:37:11;;;;;;;11.48;6.30;;;;;;;7.57;67.26;100345.22;10510701;28;20511;-67
2023/11/17 15:42:15;;;;;;;9.77;5.05;;;;;;;7.58;67.39;100358.16;10512050;28;20074;-66
2023/11/17 15:47:17;;;;;;;11.85;5.90;;;;;;;7.71;67.39;100364.53;10512354;28;20462;-67
2023/11/17 15:52:19;;;;;;;10.60;5.13;;;;;;;7.78;67.11;100365.13;10492951;28;20071;-67
2023/11/17 15:57:23;;;;;;;12.00;5.72;;;;;;;7.74;67.09;100373.97;10506554;28;20416;-66
2023/11/17 16:02:25;;;;;;;11.32;5.90;;;;;;;7.82;66.86;100371.91;10490316;28;20143;-65
2023/11/17 16:07:27;;;;;;;9.70;4.90;;;;;;;7.85;66.92;100375.22;10499850;28;20187;-65
2023/11/17 16:12:30;;;;;;;15.57;5.22;;;;;;;7.81;67.15;100381.47;10507723;28;20467;-64
2023/11/17 16:17:34;;;;;;;13.43;6.50;;;;;;;7.86;67.01;100387.34;10505751;28;20055;-66
2023/11/17 16:22:39;;;;;;;15.43;7.80;;;;;;;7.88;67.03;100401.16;10508454;28;20411;-66
2023/11/17 16:27:47;;;;;;;13.25;6.82;;;;;;;7.90;66.97;100407.13;10504769;28;20044;-65
2023/11/17 16:32:54;;;;;;;10.82;5.40;;;;;;;7.88;66.82;100403.75;10486553;28;20044;-65
2023/11/17 16:37:57;;;;;;;15.02;6.20;;;;;;;7.84;66.82;100406.53;10505980;28;20046;-66
2023/11/17 16:43:10;;;;;;;10.70;5.32;;;;;;;7.77;66.91;100411.13;10488322;28;20055;-65
2023/11/17 16:48:13;;;;;;;12.48;5.78;;;;;;;7.69;66.78;100418.41;10503809;28;20052;-66
2023/11/17 16:53:16;;;;;;;12.25;5.40;;;;;;;7.62;66.96;100431.75;10505031;28;20493;-66
2023/11/17 16:58:18;;;;;;;11.15;5.47;;;;;;;7.55;66.80;100443.31;10502078;28;20451;-66
2023/11/17 17:03:22;;;;;;;9.50;5.38;;;;;;;7.50;67.04;100451.31;10500536;28;20067;-66
2023/11/17 17:08:25;;;;;;;8.75;5.03;;;;;;;7.53;66.96;100456.38;10494212;28;20044;-66
2023/11/17 17:13:30;;;;;;;12.40;6.20;;;;;;;7.55;67.08;100461.53;10497689;28;20557;-65
2023/11/17 17:18:33;;;;;;;13.73;8.00;;;;;;;7.55;67.12;100466.75;10501850;28;20048;-66
2023/11/17 17:23:36;;;;;;;12.85;6.90;;;;;;;7.50;67.18;100473.88;10502334;28;20052;-66
2023/11/17 17:28:38;;;;;;;11.45;5.53;;;;;;;7.48;67.08;100489.56;10504454;28;20059;-66
2023/11/17 17:33:41;;;;;;;11.35;5.60;;;;;;;7.52;67.24;100503.28;10502359;28;20415;-66
2023/11/17 17:38:46;;;;;;;9.48;5.22;;;;;;;7.48;67.13;100512.13;10513480;28;20051;-65
2023/11/17 17:43:55;;;;;;;9.77;4.68;;;;;;;7.57;66.98;100514.38;10490871;28;20058;-66
2023/11/17 17:48:59;;;;;;;9.32;4.30;;;;;;;7.41;66.64;100515.84;10513355;28;20717;-65
2023/11/17 17:54:02;;;;;;;10.40;4.55;;;;;;;7.18;67.22;100529.72;10515788;28;20605;-65
2023/11/17 17:59:04;;;;;;;8.30;3.97;;;;;;;7.17;67.46;100518.47;10508600;28;20047;-66
2023/11/17 18:04:08;;;;;;;9.00;4.38;;;;;;;7.31;67.50;100525.75;10502791;28;20600;-66
2023/11/17 18:09:12;;;;;;;11.77;4.68;;;;;;;7.37;67.11;100528.13;10497512;28;20051;-66
2023/11/17 18:14:15;;;;;;;7.00;4.55;;;;;;;7.40;67.15;100534.97;10502280;28;20660;-66
2023/11/17 18:19:17;;;;;;;10.45;5.10;;;;;;;7.43;67.09;100533.09;10497595;28;20266;-66
2023/11/17 18:24:20;;;;;;;10.27;4.65;;;;;;;7.23;66.90;100539.94;10503052;28;20040;-66
2023/11/17 18:29:23;;;;;;;8.30;4.32;;;;;;;7.05;67.29;100538.88;10466010;28;20651;-64
2023/11/17 18:34:25;;;;;;;8.48;4.72;;;;;;;6.88;67.56;100541.19;10485943;28;20083;-65
2023/11/17 18:39:28;;;;;;;8.60;4.25;;;;;;;6.96;67.38;100557.38;10501693;28;20048;-65
2023/11/17 18:44:30;;;;;;;8.73;4.10;;;;;;;6.97;67.24;100566.91;10509228;28;20048;-67
2023/11/17 18:49:33;;;;;;;12.40;4.07;;;;;;;6.96;67.14;100568.63;10505652;28;20044;-66
2023/11/17 18:54:36;;;;;;;9.20;4.40;;;;;;;6.99;66.86;100571.16;10509596;28;20105;-66
2023/11/17 18:59:39;;;;;;;9.13;4.60;;;;;;;6.99;66.95;100591.09;10483464;28;20043;-65
2023/11/17 19:04:43;;;;;;;9.43;4.13;;;;;;;7.08;67.26;100593.38;10509002;28;20420;-65
2023/11/17 19:09:48;;;;;;;9.63;4.00;;;;;;;7.19;67.10;100604.25;10489667;28;20032;-67
2023/11/17 19:14:50;;;;;;;12.57;5.18;;;;;;;7.10;67.02;100600.22;10472753;28;20040;-67
2023/11/17 19:19:52;;;;;;;8.50;4.85;;;;;;;6.94;67.21;100598.19;10507479;28;20419;-67
2023/11/17 19:24:57;;;;;;;7.88;4.30;;;;;;;6.72;67.62;100611.06;10485189;28;20048;-67
2023/11/17 19:29:59;;;;;;;6.53;3.80;;;;;;;6.62;67.53;100609.69;10493745;28;20040;-67
2023/11/17 19:35:03;;;;;;;8.43;4.25;;;;;;;6.47;67.60;100633.56;10504173;28;20392;-67
2023/11/17 19:40:08;;;;;;;10.20;5.10;;;;;;;6.28;67.58;100648.88;10511664;28;20048;-68
2023/11/17 19:45:19;;;;;;;17.80;5.68;;;;;;;6.12;67.98;100650.19;10516540;28;20112;-68
2023/11/17 19:50:23;;;;;;;12.18;5.50;;;;;;;5.95;68.17;100641.22;10496344;28;20044;-68
2023/11/17 19:55:27;;;;;;;14.35;5.40;;;;;;;5.81;68.71;100654.63;10484969;28;20551;-68
2023/11/17 20:00:30;;;;;;;10.25;5.40;;;;;;;5.65;68.83;100661.13;10483340;28;20496;-67
2023/11/17 20:05:36;;;;;;;9.45;4.55;;;;;;;5.63;68.81;100657.72;10510784;28;20127;-68
2023/11/17 20:10:39;;;;;;;8.60;4.45;;;;;;;5.55;68.69;100664.88;10493517;28;20408;-69
2023/11/17 20:15:42;;;;;;;10.15;4.13;;;;;;;5.46;68.61;100670.31;10452345;28;20049;-69
2023/11/17 20:20:46;;;;;;;8.25;3.85;;;;;;;5.36;68.80;100672.31;10412613;28;20567;-69
2023/11/17 20:25:49;;;;;;;9.68;4.68;;;;;;;5.29;68.71;100677.66;10429889;28;20154;-68
2023/11/17 20:30:51;;;;;;;8.40;4.75;;;;;;;5.17;69.04;100678.00;10432111;28;21459;-68
2023/11/17 20:35:54;;;;;;;8.90;4.47;;;;;;;5.15;69.16;100691.00;10428788;28;20081;-68
2023/11/17 20:40:56;;;;;;;15.35;4.30;;;;;;;5.11;68.99;100697.16;10431607;28;20103;-68
2023/11/17 20:46:00;;;;;;;39.13;4.45;;;;;;;5.11;68.99;100689.38;10431930;28;20080;-68
2023/11/17 20:51:04;;;;;;;14.23;4.25;;;;;;;5.09;68.89;100690.31;10433901;28;20122;-68
2023/11/17 20:56:07;;;;;;;38.97;3.80;;;;;;;4.99;68.54;100688.84;10434120;28;20049;-68
2023/11/17 21:01:12;;;;;;;6.00;2.72;;;;;;;4.76;68.77;100696.34;10433098;28;20041;-68
2023/11/17 21:06:17;;;;;;;16.88;4.50;;;;;;;4.75;68.77;100702.41;10434856;28;20927;-68
2023/11/17 21:11:21;;;;;;;10.25;4.70;;;;;;;4.60;68.71;100711.38;10427734;28;20103;-67
2023/11/17 21:16:26;;;;;;;29.98;3.72;;;;;;;4.40;68.76;100713.56;10488921;28;20148;-68
2023/11/17 21:21:29;;;;;;;7.65;3.70;;;;;;;4.29;69.21;100720.75;10488803;28;20048;-67
2023/11/17 21:26:31;;;;;;;10.73;4.45;;;;;;;4.23;69.03;100737.22;10489901;28;20036;-67
2023/11/17 21:31:35;;;;;;;8.52;4.68;;;;;;;4.20;69.15;100745.09;10506042;28;20040;-68
2023/11/17 21:36:37;;;;;;;10.52;4.85;;;;;;;4.19;69.06;100745.13;10507933;28;20465;-68
2023/11/17 21:41:39;;;;;;;8.88;4.75;;;;;;;4.23;69.05;100757.13;10521519;28;20413;-67
2023/11/17 21:46:41;;;;;;;8.73;4.20;;;;;;;4.43;68.92;100750.59;10521743;28;20152;-68
2023/11/17 21:51:44;;;;;;;35.58;5.20;;;;;;;4.51;68.74;100753.91;10521155;28;20284;-67
2023/11/17 21:56:46;;;;;;;11.18;5.22;;;;;;;4.58;68.90;100764.97;10500180;28;20048;-67
2023/11/17 22:01:48;;;;;;;9.77;4.28;;;;;;;4.71;68.90;100769.00;10501361;28;20412;-67
2023/11/17 22:06:51;;;;;;;10.00;4.82;;;;;;;4.80;68.87;100778.31;10516769;28;20052;-67
2023/11/17 22:11:53;;;;;;;9.93;4.82;;;;;;;4.76;68.86;100785.28;10506057;28;20040;-68
2023/11/17 22:16:55;;;;;;;15.27;4.95;;;;;;;4.72;69.25;100781.91;10507604;28;20052;-68
2023/11/17 22:21:58;;;;;;;37.55;5.55;;;;;;;4.72;68.98;100780.22;10504897;28;20044;-67
2023/11/17 22:26:59;;;;;;;13.25;4.88;;;;;;;4.67;69.07;100790.69;10507768;28;20094;-68
2023/11/17 22:32:02;;;;;;;10.32;5.18;;;;;;;4.69;69.18;100799.28;10507535;28;20785;-67
2023/11/17 22:37:05;;;;;;;9.10;3.92;;;;;;;4.64;69.07;100801.94;10513386;28;20192;-68
2023/11/17 22:42:07;;;;;;;9.57;4.53;;;;;;;4.61;68.87;100807.22;10505327;28;21025;-67
2023/11/17 22:47:09;;;;;;;31.52;4.85;;;;;;;4.50;68.81;100819.53;10486695;28;21010;-68
2023/11/17 22:52:13;;;;;;;20.85;4.68;;;;;;;4.59;68.88;100818.50;10504527;28;20040;-67
2023/11/17 22:57:15;;;;;;;19.70;5.20;;;;;;;4.61;68.62;100821.91;10503585;28;20491;-67
2023/11/17 23:02:18;;;;;;;41.22;4.38;;;;;;;4.57;68.58;100828.91;10502572;28;20051;-67
2023/11/17 23:07:23;;;;;;;14.00;4.10;;;;;;;4.68;68.65;100834.69;10508858;28;20052;-67
2023/11/17 23:12:25;;;;;;;16.83;4.53;;;;;;;4.66;68.31;100836.44;10489745;28;20530;-67
2023/11/17 23:17:27;;;;;;;10.18;4.40;;;;;;;4.72;68.25;100822.50;10502993;28;20054;-68
2023/11/17 23:22:29;;;;;;;31.52;4.85;;;;;;;4.69;68.06;100836.41;10500967;28;20075;-68
2023/11/17 23:27:31;;;;;;;19.65;4.53;;;;;;;4.51;68.13;100841.97;10500367;28;20473;-68
2023/11/17 23:32:34;;;;;;;15.38;3.55;;;;;;;4.42;68.37;100833.50;10484011;28;20122;-68